createdAt,value
2022-08-22T00:00:54.073Z,16.74
2022-08-22T00:03:50.747Z,16.77
2022-08-22T00:06:28.763Z,16.80
2022-08-22T00:09:11.306Z,16.86
2022-08-22T00:12:16.380Z,16.93
2022-08-22T00:15:05.953Z,16.93
2022-08-22T00:17:39.392Z,16.82
2022-08-22T00:20:10.795Z,16.78
2022-08-22T00:23:10.939Z,16.76
2022-08-22T00:26:13.402Z,16.82
2022-08-22T00:28:46.488Z,16.82
2022-08-22T00:31:21.117Z,16.82
2022-08-22T00:33:55.446Z,16.83
2022-08-22T00:36:33.665Z,16.80
2022-08-22T00:39:19.019Z,16.74
2022-08-22T00:42:08.916Z,16.76
2022-08-22T00:44:54.355Z,16.72
2022-08-22T00:47:44.240Z,16.69
2022-08-22T00:50:33.894Z,16.64
2022-08-22T00:53:32.312Z,16.65
2022-08-22T00:56:14.382Z,16.67
2022-08-22T01:02:31.844Z,16.50
2022-08-22T01:05:38.027Z,16.49
2022-08-22T01:12:13.300Z,16.47
2022-08-22T01:15:25.543Z,16.41
2022-08-22T01:18:38.677Z,16.44
2022-08-22T01:25:08.951Z,16.35
2022-08-22T01:28:57.602Z,16.30
2022-08-22T01:32:02.067Z,16.28
2022-08-22T01:34:49.582Z,16.26
2022-08-22T01:38:11.085Z,16.21
2022-08-22T01:41:12.180Z,16.17
2022-08-22T01:44:26.952Z,16.12
2022-08-22T01:47:12.708Z,16.08
2022-08-22T01:49:57.568Z,16.08
2022-08-22T01:52:44.130Z,16.03
2022-08-22T01:55:30.028Z,15.95
2022-08-22T02:05:15.915Z,15.85
2022-08-22T02:08:08.938Z,15.84
2022-08-22T02:11:07.079Z,15.84
2022-08-22T02:13:37.798Z,15.82
2022-08-22T02:16:44.800Z,15.77
2022-08-22T02:22:44.843Z,15.73
2022-08-22T02:25:37.255Z,15.74
2022-08-22T02:28:56.518Z,15.77
2022-08-22T02:32:10.747Z,15.80
2022-08-22T02:42:22.622Z,15.81
2022-08-22T02:45:09.552Z,15.79
2022-08-22T02:48:02.487Z,15.76
2022-08-22T02:50:56.312Z,15.75
2022-08-22T02:53:34.264Z,15.76
2022-08-22T02:56:48.213Z,15.76
2022-08-22T03:03:25.091Z,15.75
2022-08-22T03:06:41.465Z,15.72
2022-08-22T03:09:34.957Z,15.70
2022-08-22T03:12:38.729Z,15.69
2022-08-22T03:15:26.201Z,15.71
2022-08-22T03:18:33.829Z,15.73
2022-08-22T03:21:44.037Z,15.72
2022-08-22T03:24:40.586Z,15.63
2022-08-22T03:31:36.505Z,15.62
2022-08-22T03:34:29.695Z,15.59
2022-08-22T03:37:43.877Z,15.62
2022-08-22T03:40:26.662Z,15.62
2022-08-22T03:43:52.841Z,15.63
2022-08-22T03:46:49.996Z,15.63
2022-08-22T03:50:11.131Z,15.63
2022-08-22T03:53:18.631Z,15.65
2022-08-22T03:56:11.051Z,15.67
2022-08-22T04:02:43.306Z,15.71
2022-08-22T04:05:40.850Z,15.70
2022-08-22T04:09:01.976Z,15.72
2022-08-22T04:12:06.490Z,15.73
2022-08-22T04:18:18.511Z,15.71
2022-08-22T04:21:20.583Z,15.78
2022-08-22T04:24:23.755Z,15.79
2022-08-22T04:27:29.321Z,15.77
2022-08-22T04:30:09.258Z,15.81
2022-08-22T04:33:11.258Z,15.85
2022-08-22T04:39:11.520Z,15.81
2022-08-22T04:45:09.919Z,15.79
2022-08-22T04:48:20.371Z,15.79
2022-08-22T04:54:36.714Z,15.90
2022-08-22T04:57:45.440Z,15.92
2022-08-22T05:03:25.988Z,16.00
2022-08-22T05:06:23.408Z,15.99
2022-08-22T05:09:40.319Z,16.00
2022-08-22T05:12:34.706Z,16.03
2022-08-22T05:18:58.596Z,16.10
2022-08-22T05:21:42.435Z,16.12
2022-08-22T05:24:57.744Z,16.15
2022-08-22T05:27:56.228Z,16.17
2022-08-22T05:30:35.168Z,16.21
2022-08-22T05:33:17.777Z,16.23
2022-08-22T05:36:19.915Z,16.26
2022-08-22T05:39:20.075Z,16.31
2022-08-22T05:45:35.601Z,16.40
2022-08-22T05:49:05.368Z,16.41
2022-08-22T05:59:49.456Z,16.52
2022-08-22T06:06:31.268Z,16.59
2022-08-22T06:17:09.758Z,16.71
2022-08-22T06:20:03.586Z,16.74
2022-08-22T06:22:55.518Z,16.76
2022-08-22T06:25:56.347Z,16.79
2022-08-22T06:32:02.070Z,16.85
2022-08-22T06:35:38.785Z,16.91
2022-08-22T06:41:39.364Z,16.90
2022-08-22T06:44:39.431Z,16.93
2022-08-22T06:47:41.291Z,16.98
2022-08-22T06:53:57.628Z,17.11
2022-08-22T06:56:48.993Z,17.16
2022-08-22T06:59:46.526Z,17.21
2022-08-22T07:03:17.339Z,17.24
2022-08-22T07:05:58.928Z,17.31
2022-08-22T07:08:39.124Z,17.35
2022-08-22T07:12:02.681Z,17.38
2022-08-22T07:18:09.939Z,17.47
2022-08-22T07:21:13.897Z,17.51
2022-08-22T07:24:16.586Z,17.57
2022-08-22T07:31:44.075Z,17.78
2022-08-22T07:49:13.372Z,17.84
2022-08-22T07:51:45.769Z,17.84
2022-08-22T07:54:16.250Z,17.85
2022-08-22T07:57:00.015Z,17.87
2022-08-22T07:59:28.812Z,17.86
2022-08-22T08:01:59.014Z,17.87
2022-08-22T08:04:31.258Z,17.91
2022-08-22T08:07:00.850Z,17.99
2022-08-22T08:09:32.421Z,18.06
2022-08-22T08:12:02.638Z,18.13
2022-08-22T08:14:30.060Z,18.19
2022-08-22T08:17:08.989Z,18.30
2022-08-22T08:19:39.693Z,18.37
2022-08-22T08:22:14.727Z,18.42
2022-08-22T08:24:43.546Z,18.42
2022-08-22T08:27:30.961Z,18.46
2022-08-22T08:30:10.071Z,18.48
2022-08-22T08:32:45.533Z,18.50
2022-08-22T08:35:42.426Z,18.56
2022-08-22T08:38:30.524Z,18.70
2022-08-22T08:41:06.731Z,18.77
2022-08-22T08:43:38.936Z,18.80
2022-08-22T08:46:34.039Z,18.85
2022-08-22T08:49:09.859Z,18.94
2022-08-22T08:51:46.382Z,19.07
2022-08-22T08:54:42.846Z,19.15
2022-08-22T08:57:25.721Z,19.25
2022-08-22T09:00:07.795Z,19.33
2022-08-22T09:02:53.078Z,19.37
2022-08-22T09:05:25.344Z,19.43
2022-08-22T09:08:23.953Z,19.47
2022-08-22T09:11:28.572Z,19.53
2022-08-22T09:14:14.278Z,19.57
2022-08-22T09:16:58.451Z,19.61
2022-08-22T09:19:54.723Z,19.63
2022-08-22T09:22:50.004Z,19.65
2022-08-22T09:25:23.482Z,19.69
2022-08-22T09:28:02.046Z,19.68
2022-08-22T09:33:52.054Z,19.70
2022-08-22T09:36:38.451Z,19.76
2022-08-22T09:39:16.899Z,19.84
2022-08-22T09:42:02.764Z,19.86
2022-08-22T09:44:49.292Z,19.86
2022-08-22T09:47:32.782Z,19.91
2022-08-22T09:50:19.740Z,19.95
2022-08-22T09:52:53.104Z,20.00
2022-08-22T09:55:39.613Z,20.08
2022-08-22T09:58:40.845Z,20.16
2022-08-22T10:01:25.710Z,20.21
2022-08-22T10:04:23.610Z,20.25
2022-08-22T10:07:16.713Z,20.37
2022-08-22T10:10:03.732Z,20.43
2022-08-22T10:12:52.280Z,20.45
2022-08-22T10:15:29.598Z,20.41
2022-08-22T10:18:28.262Z,20.38
2022-08-22T10:21:01.331Z,20.33
2022-08-22T10:24:00.909Z,20.32
2022-08-22T10:26:37.894Z,20.40
2022-08-22T10:29:37.884Z,20.46
2022-08-22T10:32:37.344Z,20.53
2022-08-22T10:35:36.453Z,20.54
2022-08-22T10:38:21.173Z,20.61
2022-08-22T10:41:09.956Z,20.63
2022-08-22T10:43:47.541Z,20.61
2022-08-22T10:46:34.028Z,20.63
2022-08-22T10:49:15.390Z,20.66
2022-08-22T10:51:58.407Z,20.75
2022-08-22T10:54:57.568Z,20.83
2022-08-22T10:57:40.873Z,20.93
2022-08-22T11:00:34.728Z,21.06
2022-08-22T11:03:43.025Z,21.21
2022-08-22T11:06:30.400Z,21.36
2022-08-22T11:09:31.157Z,21.53
